Welcome to our new website - Welkom op onze vernieuwde website - Bienvenue sur notre nouveau site web - Willkommen auf unserer neuen Website
Check our progress frequently. Prüfen Sie unsere Fortschritte regelmäßig. Consultez notre progression fréquemment. Komt u straks nog eens terug
Het weer levert geen direct gevaar op.    Er zijn geen waarschuwingen afgegeven.

Regen radar Meer informatie rain snow radar


Bezoek ook deze websites:

Template documentation
and downloads

And another site


U vindt ons ook hier:

UK Metoffice

WeatherCloud

Weather Underground

AWEKAS


METAR rapporten vliegvelden

Warning: A non-numeric value encountered in /customers/a/f/b/meteoassenede.be/httpd.www/weather28/metar/metarDisplay.php on line 166
   
EBBR - Brussels International Airport, Belgium
Afstand tot: W 14 km
Gewijzigd: 21-03-2019 11:20
Licht bewolkt  
Licht bewolkt  
   Wind: varieert 4 km/h
Wind: varieert 4 km/h
Temperatuur: 12°C
Dauwpunt: 8°C
Vochtigheid: 77%
Barometer: 1035 hPa
Bewolking: Licht bewolkt
Zicht: meer dan 10 km
Bewolking: Licht bewolkt 1700 ft
EBBR 211020Z VRB02KT 9999 FEW017 12/08 Q1035 NOSIG
EBBE - Beauvechain (Bevekom), Belgium
Afstand tot: ZZO 17 km
Gewijzigd: 21-03-2019 11:25
Gedeeltelijk bewolkt  
Gedeeltelijk bewolkt  
   Wind: varieert 4 km/h
Wind: varieert 4 km/h
Temperatuur: 12°C
Dauwpunt: 7°C
Vochtigheid: 72%
Barometer: 1035 hPa
Bewolking: Gedeeltelijk bewolkt
Zicht: meer dan 10 km
Bewolking: Gedeeltelijk bewolkt 25000 ft
EBBE 211025Z VRB02KT 9999 SCT250 12/07 Q1035 BLU BLU
EBDT - Schaffen, Belgium
Afstand tot: ONO 29 km
Gewijzigd: 21-03-2019 11:25
Licht bewolkt  
Licht bewolkt  
   Wind: varieert 4 km/h
Wind: varieert 4 km/h
Temperatuur: 13°C
Dauwpunt: 7°C
Vochtigheid: 67%
Barometer: 1035 hPa
Bewolking: Licht bewolkt
Zicht: meer dan 10 km
Bewolking: Licht bewolkt 3000 ft
EBDT 211025Z VRB02KT 9999 FEW030 13/07 Q1035 BLU BLU
EBAW - Antwerp/Deurne, Belgium
Afstand tot: NNW 38 km
Gewijzigd: 21-03-2019 11:20
Grotendeels bewolkt  
Grotendeels bewolkt  
   Wind: Westen 9 km/h
Wind: Westen 9 km/h
Temperatuur: 10°C
Voelt als: 9°C
Dauwpunt: 7°C
Vochtigheid: 82%
Barometer: 1035 hPa
Bewolking: Grotendeels bewolkt
Zicht: 6 km
Bewolking: Grotendeels bewolkt 1000 ft
EBAW 211020Z 28005KT 6000 BKN010 10/07 Q1035 BECMG SCT012
EBCI - Charleroi/Gosselies, Belgium
Afstand tot: ZZW 51 km
Gewijzigd: 21-03-2019 11:20
Licht bewolkt  
Licht bewolkt  
   Wind: NW 7 km/h
Wind: NW 7 km/h
Temperatuur: 12°C
Dauwpunt: 5°C
Vochtigheid: 63%
Barometer: 1034 hPa
Bewolking: Licht bewolkt
Zicht: meer dan 10 km
Bewolking: Licht bewolkt 3000 ft
EBCI 211020Z 32004KT 250V040 9999 FEW030 12/05 Q1034 NOSIG
EBLG - Bierset/Liege, Belgium
Afstand tot: OZO 60 km
Gewijzigd: 21-03-2019 11:20
Helder  
Helder  
   Wind: varieert 2 km/h
Wind: varieert 2 km/h
Temperatuur: 13°C
Dauwpunt: 3°C
Vochtigheid: 51%
Barometer: 1034 hPa
Zicht: meer dan 10 km
Bewolking: Helder
EBLG 211020Z VRB01KT CAVOK 13/03 Q1034 NOSIG

Script ontwikkeld door  Saratoga-weather.org Aangepast voor de template door  Weerstation Leuven

Apparatuur in gebruik:

Weerstation
Davis Vantage Pro2

Weerprogramma
Meteobridge

Weercomputer
TP-Link TL-MR3020

Webleverancier
One.com

Davis Vantage Pro2

Meteobridge

TP-Link TL-MR3020

One.com